sensor_id;sensor_type;location;lat;lon;timestamp;P1;durP1;ratioP1;P2;durP2;ratioP2
29370;SDS011;16357;52.188;7.838;2022-12-18T00:01:33;67.80;;;28.67;;
29370;SDS011;16357;52.188;7.838;2022-12-18T00:04:02;69.85;;;29.58;;
29370;SDS011;16357;52.188;7.838;2022-12-18T00:06:34;72.60;;;31.10;;
29370;SDS011;16357;52.188;7.838;2022-12-18T00:09:02;67.45;;;31.83;;
29370;SDS011;16357;52.188;7.838;2022-12-18T00:11:29;70.22;;;30.80;;
29370;SDS011;16357;52.188;7.838;2022-12-18T00:13:57;64.15;;;28.25;;
29370;SDS011;16357;52.188;7.838;2022-12-18T00:16:25;66.15;;;30.33;;
29370;SDS011;16357;52.188;7.838;2022-12-18T00:18:54;62.97;;;29.02;;
29370;SDS011;16357;52.188;7.838;2022-12-18T00:21:24;70.30;;;29.70;;
29370;SDS011;16357;52.188;7.838;2022-12-18T00:23:52;66.18;;;29.50;;
29370;SDS011;16357;52.188;7.838;2022-12-18T00:26:19;65.95;;;30.08;;
29370;SDS011;16357;52.188;7.838;2022-12-18T00:28:48;72.65;;;30.85;;
29370;SDS011;16357;52.188;7.838;2022-12-18T00:31:16;71.63;;;29.42;;
29370;SDS011;16357;52.188;7.838;2022-12-18T00:33:45;63.10;;;28.58;;
29370;SDS011;16357;52.188;7.838;2022-12-18T00:36:14;67.22;;;28.13;;
29370;SDS011;16357;52.188;7.838;2022-12-18T00:38:43;60.08;;;28.10;;
29370;SDS011;16357;52.188;7.838;2022-12-18T00:41:11;62.75;;;27.33;;
29370;SDS011;16357;52.188;7.838;2022-12-18T00:43:39;61.63;;;28.90;;
29370;SDS011;16357;52.188;7.838;2022-12-18T00:46:06;58.97;;;26.13;;
29370;SDS011;16357;52.188;7.838;2022-12-18T00:48:33;64.60;;;26.85;;
29370;SDS011;16357;52.188;7.838;2022-12-18T00:50:59;65.05;;;28.13;;
29370;SDS011;16357;52.188;7.838;2022-12-18T00:53:25;53.67;;;25.20;;
29370;SDS011;16357;52.188;7.838;2022-12-18T00:55:52;60.53;;;26.27;;
29370;SDS011;16357;52.188;7.838;2022-12-18T00:58:18;61.70;;;26.52;;
29370;SDS011;16357;52.188;7.838;2022-12-18T01:00:45;58.00;;;26.95;;
29370;SDS011;16357;52.188;7.838;2022-12-18T01:03:14;54.65;;;24.88;;
29370;SDS011;16357;52.188;7.838;2022-12-18T01:05:41;53.78;;;24.83;;
29370;SDS011;16357;52.188;7.838;2022-12-18T01:08:07;48.55;;;21.88;;
29370;SDS011;16357;52.188;7.838;2022-12-18T01:10:34;43.63;;;20.52;;
29370;SDS011;16357;52.188;7.838;2022-12-18T01:13:00;49.75;;;22.75;;
29370;SDS011;16357;52.188;7.838;2022-12-18T01:15:26;47.88;;;22.13;;
29370;SDS011;16357;52.188;7.838;2022-12-18T01:17:53;51.67;;;24.40;;
29370;SDS011;16357;52.188;7.838;2022-12-18T01:20:20;53.72;;;23.65;;
29370;SDS011;16357;52.188;7.838;2022-12-18T01:22:46;49.92;;;21.95;;
29370;SDS011;16357;52.188;7.838;2022-12-18T01:25:12;38.83;;;19.38;;
29370;SDS011;16357;52.188;7.838;2022-12-18T01:27:39;34.65;;;17.80;;
29370;SDS011;16357;52.188;7.838;2022-12-18T01:30:05;47.40;;;21.42;;
29370;SDS011;16357;52.188;7.838;2022-12-18T01:32:32;45.65;;;19.60;;
29370;SDS011;16357;52.188;7.838;2022-12-18T01:34:59;42.53;;;20.05;;
29370;SDS011;16357;52.188;7.838;2022-12-18T01:37:25;34.10;;;16.88;;
29370;SDS011;16357;52.188;7.838;2022-12-18T01:39:52;32.40;;;16.17;;
29370;SDS011;16357;52.188;7.838;2022-12-18T01:42:20;40.22;;;18.27;;
29370;SDS011;16357;52.188;7.838;2022-12-18T01:45:00;38.63;;;17.27;;
29370;SDS011;16357;52.188;7.838;2022-12-18T01:50:06;42.40;;;18.60;;
29370;SDS011;16357;52.188;7.838;2022-12-18T01:52:36;33.75;;;16.33;;
29370;SDS011;16357;52.188;7.838;2022-12-18T01:55:08;33.15;;;15.05;;
29370;SDS011;16357;52.188;7.838;2022-12-18T01:57:35;29.52;;;14.85;;
29370;SDS011;16357;52.188;7.838;2022-12-18T02:00:08;33.35;;;15.63;;
29370;SDS011;16357;52.188;7.838;2022-12-18T02:02:37;28.50;;;13.90;;
29370;SDS011;16357;52.188;7.838;2022-12-18T02:05:04;25.65;;;13.55;;
29370;SDS011;16357;52.188;7.838;2022-12-18T02:10:18;26.70;;;12.23;;
29370;SDS011;16357;52.188;7.838;2022-12-18T02:12:49;28.67;;;12.85;;
29370;SDS011;16357;52.188;7.838;2022-12-18T02:17:59;21.48;;;11.68;;
29370;SDS011;16357;52.188;7.838;2022-12-18T02:20:36;24.35;;;12.20;;
29370;SDS011;16357;52.188;7.838;2022-12-18T02:23:47;23.63;;;10.75;;
29370;SDS011;16357;52.188;7.838;2022-12-18T02:28:32;19.15;;;10.07;;
29370;SDS011;16357;52.188;7.838;2022-12-18T02:31:03;22.40;;;10.02;;
29370;SDS011;16357;52.188;7.838;2022-12-18T02:33:35;20.83;;;10.70;;
29370;SDS011;16357;52.188;7.838;2022-12-18T02:36:03;20.90;;;10.75;;
29370;SDS011;16357;52.188;7.838;2022-12-18T02:38:31;19.42;;;10.00;;
29370;SDS011;16357;52.188;7.838;2022-12-18T02:40:59;19.88;;;10.73;;
29370;SDS011;16357;52.188;7.838;2022-12-18T02:43:26;20.08;;;10.88;;
29370;SDS011;16357;52.188;7.838;2022-12-18T02:45:56;25.23;;;11.60;;
29370;SDS011;16357;52.188;7.838;2022-12-18T02:48:27;19.52;;;10.43;;
29370;SDS011;16357;52.188;7.838;2022-12-18T02:51:00;20.00;;;11.57;;
29370;SDS011;16357;52.188;7.838;2022-12-18T02:53:39;19.90;;;9.40;;
29370;SDS011;16357;52.188;7.838;2022-12-18T02:56:18;16.98;;;8.25;;
29370;SDS011;16357;52.188;7.838;2022-12-18T02:58:56;18.20;;;8.98;;
29370;SDS011;16357;52.188;7.838;2022-12-18T03:01:30;13.65;;;8.32;;
29370;SDS011;16357;52.188;7.838;2022-12-18T03:04:01;13.93;;;7.75;;
29370;SDS011;16357;52.188;7.838;2022-12-18T03:06:40;14.55;;;7.95;;
29370;SDS011;16357;52.188;7.838;2022-12-18T03:09:12;14.40;;;7.75;;
29370;SDS011;16357;52.188;7.838;2022-12-18T03:11:44;12.27;;;7.25;;
29370;SDS011;16357;52.188;7.838;2022-12-18T03:14:35;13.43;;;6.97;;
29370;SDS011;16357;52.188;7.838;2022-12-18T03:17:05;11.98;;;7.10;;
29370;SDS011;16357;52.188;7.838;2022-12-18T03:19:38;13.20;;;6.93;;
29370;SDS011;16357;52.188;7.838;2022-12-18T03:22:07;11.65;;;6.07;;
29370;SDS011;16357;52.188;7.838;2022-12-18T03:24:35;17.58;;;8.07;;
29370;SDS011;16357;52.188;7.838;2022-12-18T03:27:06;11.70;;;6.43;;
29370;SDS011;16357;52.188;7.838;2022-12-18T03:29:42;15.70;;;7.32;;
29370;SDS011;16357;52.188;7.838;2022-12-18T03:32:20;13.52;;;7.88;;
29370;SDS011;16357;52.188;7.838;2022-12-18T03:34:51;21.40;;;12.18;;
29370;SDS011;16357;52.188;7.838;2022-12-18T03:37:25;15.40;;;8.23;;
29370;SDS011;16357;52.188;7.838;2022-12-18T03:39:51;11.75;;;7.38;;
29370;SDS011;16357;52.188;7.838;2022-12-18T03:42:25;12.20;;;6.85;;
29370;SDS011;16357;52.188;7.838;2022-12-18T03:44:58;11.10;;;6.70;;
29370;SDS011;16357;52.188;7.838;2022-12-18T03:50:21;12.55;;;6.22;;
29370;SDS011;16357;52.188;7.838;2022-12-18T03:55:45;13.23;;;5.45;;
29370;SDS011;16357;52.188;7.838;2022-12-18T03:58:15;10.88;;;5.57;;
29370;SDS011;16357;52.188;7.838;2022-12-18T04:00:45;9.27;;;5.38;;
29370;SDS011;16357;52.188;7.838;2022-12-18T04:03:15;9.32;;;5.57;;
29370;SDS011;16357;52.188;7.838;2022-12-18T04:05:42;10.63;;;5.72;;
29370;SDS011;16357;52.188;7.838;2022-12-18T04:08:10;11.82;;;5.95;;
29370;SDS011;16357;52.188;7.838;2022-12-18T04:10:36;9.15;;;5.50;;
29370;SDS011;16357;52.188;7.838;2022-12-18T04:13:03;8.77;;;5.25;;
29370;SDS011;16357;52.188;7.838;2022-12-18T04:15:29;8.02;;;4.78;;
29370;SDS011;16357;52.188;7.838;2022-12-18T04:18:00;12.32;;;5.65;;
29370;SDS011;16357;52.188;7.838;2022-12-18T04:20:27;10.35;;;5.70;;
29370;SDS011;16357;52.188;7.838;2022-12-18T04:22:54;9.73;;;5.18;;
29370;SDS011;16357;52.188;7.838;2022-12-18T04:25:20;9.43;;;5.22;;
29370;SDS011;16357;52.188;7.838;2022-12-18T04:27:46;8.93;;;5.60;;
29370;SDS011;16357;52.188;7.838;2022-12-18T04:30:13;10.05;;;5.18;;
29370;SDS011;16357;52.188;7.838;2022-12-18T04:32:39;8.38;;;4.82;;
29370;SDS011;16357;52.188;7.838;2022-12-18T04:35:05;7.70;;;4.63;;
29370;SDS011;16357;52.188;7.838;2022-12-18T04:37:36;9.15;;;4.68;;
29370;SDS011;16357;52.188;7.838;2022-12-18T04:40:02;8.23;;;4.85;;
29370;SDS011;16357;52.188;7.838;2022-12-18T04:42:29;7.22;;;4.50;;
29370;SDS011;16357;52.188;7.838;2022-12-18T04:44:55;8.02;;;4.57;;
29370;SDS011;16357;52.188;7.838;2022-12-18T04:47:22;8.05;;;4.35;;
29370;SDS011;16357;52.188;7.838;2022-12-18T04:49:48;7.18;;;4.35;;
29370;SDS011;16357;52.188;7.838;2022-12-18T04:52:14;8.30;;;4.40;;
29370;SDS011;16357;52.188;7.838;2022-12-18T04:54:41;7.22;;;4.30;;
29370;SDS011;16357;52.188;7.838;2022-12-18T04:57:07;6.78;;;4.43;;
29370;SDS011;16357;52.188;7.838;2022-12-18T04:59:33;7.68;;;4.45;;
29370;SDS011;16357;52.188;7.838;2022-12-18T05:02:00;7.60;;;4.35;;
29370;SDS011;16357;52.188;7.838;2022-12-18T05:04:26;9.10;;;4.38;;
29370;SDS011;16357;52.188;7.838;2022-12-18T05:06:53;10.40;;;4.20;;
29370;SDS011;16357;52.188;7.838;2022-12-18T05:09:19;8.85;;;4.00;;
29370;SDS011;16357;52.188;7.838;2022-12-18T05:11:46;8.20;;;3.70;;
29370;SDS011;16357;52.188;7.838;2022-12-18T05:14:13;6.47;;;4.13;;
29370;SDS011;16357;52.188;7.838;2022-12-18T05:16:39;7.20;;;3.80;;
29370;SDS011;16357;52.188;7.838;2022-12-18T05:19:06;7.90;;;3.80;;
29370;SDS011;16357;52.188;7.838;2022-12-18T05:21:32;6.85;;;4.00;;
29370;SDS011;16357;52.188;7.838;2022-12-18T05:23:58;7.80;;;3.78;;
29370;SDS011;16357;52.188;7.838;2022-12-18T05:26:25;8.80;;;4.13;;
29370;SDS011;16357;52.188;7.838;2022-12-18T05:28:51;6.55;;;3.72;;
29370;SDS011;16357;52.188;7.838;2022-12-18T05:31:17;5.65;;;3.70;;
29370;SDS011;16357;52.188;7.838;2022-12-18T05:33:44;10.43;;;3.78;;
29370;SDS011;16357;52.188;7.838;2022-12-18T05:36:10;6.00;;;4.10;;
29370;SDS011;16357;52.188;7.838;2022-12-18T05:38:38;9.00;;;3.88;;
29370;SDS011;16357;52.188;7.838;2022-12-18T05:41:05;6.68;;;3.90;;
29370;SDS011;16357;52.188;7.838;2022-12-18T05:43:33;7.13;;;4.22;;
29370;SDS011;16357;52.188;7.838;2022-12-18T05:46:04;7.32;;;4.20;;
29370;SDS011;16357;52.188;7.838;2022-12-18T05:48:32;8.68;;;3.88;;
29370;SDS011;16357;52.188;7.838;2022-12-18T05:51:03;7.93;;;3.95;;
29370;SDS011;16357;52.188;7.838;2022-12-18T05:53:31;8.05;;;4.07;;
29370;SDS011;16357;52.188;7.838;2022-12-18T05:56:02;7.30;;;3.88;;
29370;SDS011;16357;52.188;7.838;2022-12-18T05:58:30;6.50;;;4.03;;
29370;SDS011;16357;52.188;7.838;2022-12-18T06:00:57;9.95;;;4.50;;
29370;SDS011;16357;52.188;7.838;2022-12-18T06:03:24;8.13;;;4.28;;
29370;SDS011;16357;52.188;7.838;2022-12-18T06:05:58;4.97;;;3.28;;
29370;SDS011;16357;52.188;7.838;2022-12-18T06:08:25;6.60;;;3.85;;
29370;SDS011;16357;52.188;7.838;2022-12-18T06:10:51;7.55;;;4.38;;
29370;SDS011;16357;52.188;7.838;2022-12-18T06:13:19;8.57;;;4.38;;
29370;SDS011;16357;52.188;7.838;2022-12-18T06:15:46;7.35;;;4.22;;
29370;SDS011;16357;52.188;7.838;2022-12-18T06:18:12;10.25;;;5.10;;
29370;SDS011;16357;52.188;7.838;2022-12-18T06:20:38;7.43;;;4.45;;
29370;SDS011;16357;52.188;7.838;2022-12-18T06:23:07;7.15;;;4.10;;
29370;SDS011;16357;52.188;7.838;2022-12-18T06:25:37;6.80;;;3.90;;
29370;SDS011;16357;52.188;7.838;2022-12-18T06:28:04;7.88;;;4.13;;
29370;SDS011;16357;52.188;7.838;2022-12-18T06:30:30;6.40;;;4.05;;
29370;SDS011;16357;52.188;7.838;2022-12-18T06:32:57;6.25;;;3.55;;
29370;SDS011;16357;52.188;7.838;2022-12-18T06:35:23;7.07;;;4.28;;
29370;SDS011;16357;52.188;7.838;2022-12-18T06:37:50;8.35;;;4.43;;
29370;SDS011;16357;52.188;7.838;2022-12-18T06:40:19;8.55;;;4.28;;
29370;SDS011;16357;52.188;7.838;2022-12-18T06:42:46;6.57;;;3.40;;
29370;SDS011;16357;52.188;7.838;2022-12-18T06:45:15;8.15;;;5.20;;
29370;SDS011;16357;52.188;7.838;2022-12-18T06:47:41;9.98;;;5.05;;
29370;SDS011;16357;52.188;7.838;2022-12-18T06:50:08;9.00;;;5.03;;
29370;SDS011;16357;52.188;7.838;2022-12-18T06:52:34;8.80;;;4.82;;
29370;SDS011;16357;52.188;7.838;2022-12-18T06:55:01;8.38;;;4.78;;
29370;SDS011;16357;52.188;7.838;2022-12-18T06:57:27;9.93;;;5.15;;
29370;SDS011;16357;52.188;7.838;2022-12-18T06:59:54;9.27;;;5.03;;
29370;SDS011;16357;52.188;7.838;2022-12-18T07:02:20;10.18;;;5.32;;
29370;SDS011;16357;52.188;7.838;2022-12-18T07:04:50;9.18;;;5.00;;
29370;SDS011;16357;52.188;7.838;2022-12-18T07:07:16;9.40;;;5.10;;
29370;SDS011;16357;52.188;7.838;2022-12-18T07:09:43;11.77;;;5.68;;
29370;SDS011;16357;52.188;7.838;2022-12-18T07:12:09;10.65;;;5.43;;
29370;SDS011;16357;52.188;7.838;2022-12-18T07:14:36;10.38;;;5.32;;
29370;SDS011;16357;52.188;7.838;2022-12-18T07:17:02;11.38;;;6.10;;
29370;SDS011;16357;52.188;7.838;2022-12-18T07:19:29;10.88;;;6.05;;
29370;SDS011;16357;52.188;7.838;2022-12-18T07:21:56;14.05;;;6.97;;
29370;SDS011;16357;52.188;7.838;2022-12-18T07:24:22;12.38;;;7.15;;
29370;SDS011;16357;52.188;7.838;2022-12-18T07:26:48;17.48;;;8.02;;
29370;SDS011;16357;52.188;7.838;2022-12-18T07:29:15;15.10;;;7.72;;
29370;SDS011;16357;52.188;7.838;2022-12-18T07:31:41;15.27;;;7.13;;
29370;SDS011;16357;52.188;7.838;2022-12-18T07:34:12;12.93;;;6.90;;
29370;SDS011;16357;52.188;7.838;2022-12-18T07:36:39;13.50;;;6.75;;
29370;SDS011;16357;52.188;7.838;2022-12-18T07:39:06;13.18;;;6.72;;
29370;SDS011;16357;52.188;7.838;2022-12-18T07:41:32;10.98;;;6.40;;
29370;SDS011;16357;52.188;7.838;2022-12-18T07:43:59;13.05;;;7.05;;
29370;SDS011;16357;52.188;7.838;2022-12-18T07:46:25;12.77;;;6.78;;
29370;SDS011;16357;52.188;7.838;2022-12-18T07:48:51;13.85;;;6.10;;
29370;SDS011;16357;52.188;7.838;2022-12-18T07:51:18;12.60;;;5.88;;
29370;SDS011;16357;52.188;7.838;2022-12-18T07:53:48;11.35;;;6.25;;
29370;SDS011;16357;52.188;7.838;2022-12-18T07:56:17;12.68;;;6.30;;
29370;SDS011;16357;52.188;7.838;2022-12-18T07:58:55;11.57;;;6.30;;
29370;SDS011;16357;52.188;7.838;2022-12-18T08:01:22;13.27;;;6.80;;
29370;SDS011;16357;52.188;7.838;2022-12-18T08:03:49;13.45;;;6.60;;
29370;SDS011;16357;52.188;7.838;2022-12-18T08:06:17;11.05;;;6.13;;
29370;SDS011;16357;52.188;7.838;2022-12-18T08:08:44;12.32;;;6.72;;
29370;SDS011;16357;52.188;7.838;2022-12-18T08:11:10;13.93;;;6.97;;
29370;SDS011;16357;52.188;7.838;2022-12-18T08:13:37;12.07;;;6.20;;
29370;SDS011;16357;52.188;7.838;2022-12-18T08:16:05;13.95;;;6.40;;
29370;SDS011;16357;52.188;7.838;2022-12-18T08:18:33;14.15;;;6.40;;
29370;SDS011;16357;52.188;7.838;2022-12-18T08:21:12;15.15;;;7.13;;
29370;SDS011;16357;52.188;7.838;2022-12-18T08:23:41;12.02;;;6.85;;
29370;SDS011;16357;52.188;7.838;2022-12-18T08:26:09;12.93;;;6.63;;
29370;SDS011;16357;52.188;7.838;2022-12-18T08:28:36;11.80;;;6.38;;
29370;SDS011;16357;52.188;7.838;2022-12-18T08:31:03;13.60;;;6.88;;
29370;SDS011;16357;52.188;7.838;2022-12-18T08:33:30;15.27;;;7.43;;
29370;SDS011;16357;52.188;7.838;2022-12-18T08:36:00;12.80;;;6.85;;
29370;SDS011;16357;52.188;7.838;2022-12-18T08:38:28;12.20;;;6.65;;
29370;SDS011;16357;52.188;7.838;2022-12-18T08:43:28;18.38;;;8.88;;
29370;SDS011;16357;52.188;7.838;2022-12-18T08:46:16;13.95;;;7.90;;
29370;SDS011;16357;52.188;7.838;2022-12-18T08:48:44;14.60;;;7.22;;
29370;SDS011;16357;52.188;7.838;2022-12-18T08:51:10;12.23;;;6.45;;
29370;SDS011;16357;52.188;7.838;2022-12-18T08:53:37;15.85;;;7.20;;
29370;SDS011;16357;52.188;7.838;2022-12-18T08:56:04;12.00;;;6.43;;
29370;SDS011;16357;52.188;7.838;2022-12-18T08:58:31;12.10;;;6.90;;
29370;SDS011;16357;52.188;7.838;2022-12-18T09:01:04;12.10;;;6.95;;
29370;SDS011;16357;52.188;7.838;2022-12-18T09:03:32;14.15;;;7.50;;
29370;SDS011;16357;52.188;7.838;2022-12-18T09:05:59;13.85;;;7.22;;
29370;SDS011;16357;52.188;7.838;2022-12-18T09:08:26;13.98;;;6.85;;
29370;SDS011;16357;52.188;7.838;2022-12-18T09:10:52;14.02;;;7.65;;
29370;SDS011;16357;52.188;7.838;2022-12-18T09:13:19;11.93;;;6.80;;
29370;SDS011;16357;52.188;7.838;2022-12-18T09:15:48;11.38;;;6.68;;
29370;SDS011;16357;52.188;7.838;2022-12-18T09:18:17;14.10;;;7.40;;
29370;SDS011;16357;52.188;7.838;2022-12-18T09:20:44;11.27;;;6.57;;
29370;SDS011;16357;52.188;7.838;2022-12-18T09:23:11;11.13;;;6.75;;
29370;SDS011;16357;52.188;7.838;2022-12-18T09:25:38;15.23;;;7.35;;
29370;SDS011;16357;52.188;7.838;2022-12-18T09:28:12;11.50;;;6.30;;
29370;SDS011;16357;52.188;7.838;2022-12-18T09:33:08;11.63;;;6.15;;
29370;SDS011;16357;52.188;7.838;2022-12-18T09:35:38;13.05;;;6.53;;
29370;SDS011;16357;52.188;7.838;2022-12-18T09:38:07;12.30;;;6.60;;
29370;SDS011;16357;52.188;7.838;2022-12-18T09:40:47;10.75;;;5.63;;
29370;SDS011;16357;52.188;7.838;2022-12-18T09:43:30;13.80;;;6.65;;
29370;SDS011;16357;52.188;7.838;2022-12-18T09:46:07;12.07;;;6.07;;
29370;SDS011;16357;52.188;7.838;2022-12-18T09:48:38;10.63;;;6.10;;
29370;SDS011;16357;52.188;7.838;2022-12-18T09:51:13;9.63;;;5.97;;
29370;SDS011;16357;52.188;7.838;2022-12-18T09:53:47;10.75;;;6.38;;
29370;SDS011;16357;52.188;7.838;2022-12-18T09:56:19;9.05;;;5.75;;
29370;SDS011;16357;52.188;7.838;2022-12-18T09:58:54;10.98;;;6.40;;
29370;SDS011;16357;52.188;7.838;2022-12-18T10:01:24;12.07;;;6.45;;
29370;SDS011;16357;52.188;7.838;2022-12-18T10:04:04;10.63;;;5.88;;
29370;SDS011;16357;52.188;7.838;2022-12-18T10:06:33;9.30;;;6.05;;
29370;SDS011;16357;52.188;7.838;2022-12-18T10:12:04;11.45;;;6.22;;
29370;SDS011;16357;52.188;7.838;2022-12-18T10:14:47;11.50;;;6.00;;
29370;SDS011;16357;52.188;7.838;2022-12-18T10:22:28;7.72;;;5.10;;
29370;SDS011;16357;52.188;7.838;2022-12-18T10:27:54;10.32;;;5.70;;
29370;SDS011;16357;52.188;7.838;2022-12-18T10:30:24;10.75;;;5.70;;
29370;SDS011;16357;52.188;7.838;2022-12-18T10:32:51;9.10;;;5.85;;
29370;SDS011;16357;52.188;7.838;2022-12-18T10:35:19;11.38;;;6.13;;
29370;SDS011;16357;52.188;7.838;2022-12-18T10:38:04;9.68;;;6.28;;
29370;SDS011;16357;52.188;7.838;2022-12-18T10:40:57;9.65;;;5.72;;
29370;SDS011;16357;52.188;7.838;2022-12-18T10:43:29;12.73;;;6.30;;
29370;SDS011;16357;52.188;7.838;2022-12-18T10:48:26;10.43;;;6.32;;
29370;SDS011;16357;52.188;7.838;2022-12-18T10:50:53;11.27;;;6.35;;
29370;SDS011;16357;52.188;7.838;2022-12-18T10:53:41;9.23;;;5.10;;
29370;SDS011;16357;52.188;7.838;2022-12-18T10:56:09;11.90;;;6.53;;
29370;SDS011;16357;52.188;7.838;2022-12-18T10:58:37;10.10;;;6.20;;
29370;SDS011;16357;52.188;7.838;2022-12-18T11:01:16;10.02;;;5.97;;
29370;SDS011;16357;52.188;7.838;2022-12-18T11:03:45;9.77;;;6.18;;
29370;SDS011;16357;52.188;7.838;2022-12-18T11:06:23;11.27;;;6.07;;
29370;SDS011;16357;52.188;7.838;2022-12-18T11:08:57;10.00;;;6.50;;
29370;SDS011;16357;52.188;7.838;2022-12-18T11:11:25;11.43;;;6.07;;
29370;SDS011;16357;52.188;7.838;2022-12-18T11:13:58;14.20;;;6.53;;
29370;SDS011;16357;52.188;7.838;2022-12-18T11:16:43;10.20;;;5.60;;
29370;SDS011;16357;52.188;7.838;2022-12-18T11:19:38;11.95;;;6.63;;
29370;SDS011;16357;52.188;7.838;2022-12-18T11:22:19;7.70;;;4.45;;
29370;SDS011;16357;52.188;7.838;2022-12-18T11:31:41;8.30;;;5.70;;
29370;SDS011;16357;52.188;7.838;2022-12-18T11:33:46;11.85;;;6.60;;
29370;SDS011;16357;52.188;7.838;2022-12-18T11:36:48;10.60;;;6.10;;
29370;SDS011;16357;52.188;7.838;2022-12-18T11:39:17;11.32;;;6.03;;
29370;SDS011;16357;52.188;7.838;2022-12-18T11:47:44;7.78;;;5.20;;
29370;SDS011;16357;52.188;7.838;2022-12-18T11:50:40;9.82;;;5.68;;
29370;SDS011;16357;52.188;7.838;2022-12-18T11:53:17;8.55;;;5.47;;
29370;SDS011;16357;52.188;7.838;2022-12-18T11:56:00;8.93;;;5.53;;
29370;SDS011;16357;52.188;7.838;2022-12-18T12:06:40;9.43;;;5.35;;
29370;SDS011;16357;52.188;7.838;2022-12-18T12:09:29;9.00;;;5.53;;
29370;SDS011;16357;52.188;7.838;2022-12-18T12:14:45;9.35;;;5.47;;
29370;SDS011;16357;52.188;7.838;2022-12-18T12:20:25;9.45;;;5.72;;
29370;SDS011;16357;52.188;7.838;2022-12-18T12:23:07;11.25;;;6.63;;
29370;SDS011;16357;52.188;7.838;2022-12-18T12:25:45;10.63;;;6.32;;
29370;SDS011;16357;52.188;7.838;2022-12-18T12:31:07;10.07;;;5.47;;
29370;SDS011;16357;52.188;7.838;2022-12-18T12:36:35;13.40;;;5.90;;
29370;SDS011;16357;52.188;7.838;2022-12-18T12:39:05;10.63;;;5.88;;
29370;SDS011;16357;52.188;7.838;2022-12-18T12:41:36;12.65;;;6.22;;
29370;SDS011;16357;52.188;7.838;2022-12-18T12:44:50;14.05;;;7.25;;
29370;SDS011;16357;52.188;7.838;2022-12-18T12:47:30;11.80;;;6.43;;
29370;SDS011;16357;52.188;7.838;2022-12-18T12:50:03;16.25;;;7.40;;
29370;SDS011;16357;52.188;7.838;2022-12-18T12:52:48;18.35;;;7.88;;
29370;SDS011;16357;52.188;7.838;2022-12-18T12:55:23;16.15;;;7.35;;
29370;SDS011;16357;52.188;7.838;2022-12-18T13:00:30;13.68;;;6.93;;
29370;SDS011;16357;52.188;7.838;2022-12-18T13:03:15;14.32;;;6.80;;
29370;SDS011;16357;52.188;7.838;2022-12-18T13:05:57;14.20;;;7.07;;
29370;SDS011;16357;52.188;7.838;2022-12-18T13:08:29;12.60;;;6.55;;
29370;SDS011;16357;52.188;7.838;2022-12-18T13:11:00;13.50;;;6.70;;
29370;SDS011;16357;52.188;7.838;2022-12-18T13:13:50;14.25;;;7.05;;
29370;SDS011;16357;52.188;7.838;2022-12-18T13:16:18;14.75;;;6.57;;
29370;SDS011;16357;52.188;7.838;2022-12-18T13:18:52;14.80;;;6.18;;
29370;SDS011;16357;52.188;7.838;2022-12-18T13:21:22;15.18;;;7.00;;
29370;SDS011;16357;52.188;7.838;2022-12-18T13:23:53;17.08;;;7.43;;
29370;SDS011;16357;52.188;7.838;2022-12-18T13:28:55;15.98;;;7.00;;
29370;SDS011;16357;52.188;7.838;2022-12-18T13:34:09;11.88;;;6.22;;
29370;SDS011;16357;52.188;7.838;2022-12-18T13:47:28;7.32;;;4.78;;
29370;SDS011;16357;52.188;7.838;2022-12-18T13:50:01;6.38;;;4.38;;
29370;SDS011;16357;52.188;7.838;2022-12-18T13:52:39;7.20;;;4.40;;
29370;SDS011;16357;52.188;7.838;2022-12-18T13:55:07;7.60;;;4.78;;
29370;SDS011;16357;52.188;7.838;2022-12-18T13:57:42;7.78;;;4.65;;
29370;SDS011;16357;52.188;7.838;2022-12-18T14:00:16;9.98;;;4.75;;
29370;SDS011;16357;52.188;7.838;2022-12-18T14:02:51;8.80;;;5.28;;
29370;SDS011;16357;52.188;7.838;2022-12-18T14:05:22;7.28;;;4.72;;
29370;SDS011;16357;52.188;7.838;2022-12-18T14:07:53;9.23;;;4.90;;
29370;SDS011;16357;52.188;7.838;2022-12-18T14:10:21;9.20;;;5.07;;
29370;SDS011;16357;52.188;7.838;2022-12-18T14:13:08;8.32;;;5.15;;
29370;SDS011;16357;52.188;7.838;2022-12-18T14:15:43;7.47;;;5.00;;
29370;SDS011;16357;52.188;7.838;2022-12-18T14:18:17;10.20;;;5.00;;
29370;SDS011;16357;52.188;7.838;2022-12-18T14:20:45;8.18;;;4.97;;
29370;SDS011;16357;52.188;7.838;2022-12-18T14:26:24;9.52;;;4.90;;
29370;SDS011;16357;52.188;7.838;2022-12-18T14:29:00;8.73;;;5.10;;
29370;SDS011;16357;52.188;7.838;2022-12-18T14:31:43;9.32;;;5.10;;
29370;SDS011;16357;52.188;7.838;2022-12-18T14:34:16;9.52;;;4.78;;
29370;SDS011;16357;52.188;7.838;2022-12-18T14:36:53;7.65;;;4.82;;
29370;SDS011;16357;52.188;7.838;2022-12-18T14:39:21;10.00;;;4.43;;
29370;SDS011;16357;52.188;7.838;2022-12-18T14:41:49;8.10;;;4.90;;
29370;SDS011;16357;52.188;7.838;2022-12-18T14:44:15;8.07;;;5.18;;
29370;SDS011;16357;52.188;7.838;2022-12-18T14:46:42;9.18;;;5.25;;
29370;SDS011;16357;52.188;7.838;2022-12-18T14:51:57;7.82;;;4.93;;
29370;SDS011;16357;52.188;7.838;2022-12-18T14:54:29;14.27;;;7.75;;
29370;SDS011;16357;52.188;7.838;2022-12-18T14:59:44;13.73;;;7.85;;
29370;SDS011;16357;52.188;7.838;2022-12-18T15:02:15;13.60;;;7.10;;
29370;SDS011;16357;52.188;7.838;2022-12-18T15:04:48;10.32;;;5.57;;
29370;SDS011;16357;52.188;7.838;2022-12-18T15:07:27;9.30;;;4.97;;
29370;SDS011;16357;52.188;7.838;2022-12-18T15:12:41;8.70;;;5.28;;
29370;SDS011;16357;52.188;7.838;2022-12-18T15:23:25;7.55;;;4.53;;
29370;SDS011;16357;52.188;7.838;2022-12-18T15:25:56;9.80;;;5.15;;
29370;SDS011;16357;52.188;7.838;2022-12-18T15:28:46;8.40;;;5.05;;
29370;SDS011;16357;52.188;7.838;2022-12-18T15:33:44;8.10;;;4.97;;
29370;SDS011;16357;52.188;7.838;2022-12-18T15:36:15;7.82;;;4.93;;
29370;SDS011;16357;52.188;7.838;2022-12-18T15:38:48;8.07;;;4.80;;
29370;SDS011;16357;52.188;7.838;2022-12-18T15:41:19;8.70;;;4.95;;
29370;SDS011;16357;52.188;7.838;2022-12-18T15:43:50;8.70;;;4.65;;
29370;SDS011;16357;52.188;7.838;2022-12-18T15:46:19;7.85;;;4.40;;
29370;SDS011;16357;52.188;7.838;2022-12-18T15:48:48;9.52;;;4.90;;
29370;SDS011;16357;52.188;7.838;2022-12-18T15:51:33;9.30;;;4.85;;
29370;SDS011;16357;52.188;7.838;2022-12-18T15:54:02;8.75;;;5.25;;
29370;SDS011;16357;52.188;7.838;2022-12-18T15:56:30;7.78;;;4.85;;
29370;SDS011;16357;52.188;7.838;2022-12-18T15:59:17;8.60;;;5.22;;
29370;SDS011;16357;52.188;7.838;2022-12-18T16:01:45;7.20;;;4.57;;
29370;SDS011;16357;52.188;7.838;2022-12-18T16:04:15;8.60;;;5.18;;
29370;SDS011;16357;52.188;7.838;2022-12-18T16:06:43;9.63;;;5.40;;
29370;SDS011;16357;52.188;7.838;2022-12-18T16:09:29;8.73;;;5.38;;
29370;SDS011;16357;52.188;7.838;2022-12-18T16:11:55;7.70;;;4.55;;
29370;SDS011;16357;52.188;7.838;2022-12-18T16:14:23;13.43;;;6.40;;
29370;SDS011;16357;52.188;7.838;2022-12-18T16:16:55;9.32;;;5.55;;
29370;SDS011;16357;52.188;7.838;2022-12-18T16:19:24;11.02;;;5.20;;
29370;SDS011;16357;52.188;7.838;2022-12-18T16:21:52;9.50;;;5.35;;
29370;SDS011;16357;52.188;7.838;2022-12-18T16:24:21;9.80;;;5.20;;
29370;SDS011;16357;52.188;7.838;2022-12-18T16:26:50;9.70;;;4.85;;
29370;SDS011;16357;52.188;7.838;2022-12-18T16:29:18;8.50;;;5.38;;
29370;SDS011;16357;52.188;7.838;2022-12-18T16:31:56;8.10;;;5.20;;
29370;SDS011;16357;52.188;7.838;2022-12-18T16:34:24;7.75;;;4.95;;
29370;SDS011;16357;52.188;7.838;2022-12-18T16:36:54;8.50;;;5.20;;
29370;SDS011;16357;52.188;7.838;2022-12-18T16:39:30;9.43;;;5.40;;
29370;SDS011;16357;52.188;7.838;2022-12-18T16:41:58;9.32;;;5.10;;
29370;SDS011;16357;52.188;7.838;2022-12-18T16:44:27;7.85;;;5.25;;
29370;SDS011;16357;52.188;7.838;2022-12-18T16:46:53;8.52;;;5.53;;